createdAt,value
2022-08-05T00:02:29.210Z,51.40
2022-08-05T00:06:04.601Z,51.40
2022-08-05T00:08:55.810Z,51.30
2022-08-05T00:11:59.837Z,51.30
2022-08-05T00:15:54.419Z,51.40
2022-08-05T00:18:26.629Z,51.40
2022-08-05T00:21:30.579Z,51.40
2022-08-05T00:24:32.231Z,51.40
2022-08-05T00:27:35.727Z,51.40
2022-08-05T00:30:38.050Z,51.30
2022-08-05T00:34:53.413Z,51.30
2022-08-05T00:37:11.837Z,52.00
2022-08-05T00:40:17.861Z,51.40
2022-08-05T00:43:47.336Z,51.30
2022-08-05T00:46:54.319Z,51.30
2022-08-05T00:50:04.246Z,51.40
2022-08-05T00:53:09.801Z,51.30
2022-08-05T00:56:28.556Z,51.40
2022-08-05T00:59:34.637Z,51.40
2022-08-05T01:02:46.195Z,51.40
2022-08-05T01:05:48.295Z,51.50
2022-08-05T01:08:52.691Z,51.60
2022-08-05T01:12:03.134Z,51.60
2022-08-05T01:15:35.087Z,51.60
2022-08-05T01:18:37.484Z,51.60
2022-08-05T01:22:06.676Z,51.60
2022-08-05T01:25:40.647Z,51.60
2022-08-05T01:28:46.428Z,51.70
2022-08-05T01:31:52.047Z,51.60
2022-08-05T01:34:58.142Z,51.70
2022-08-05T01:38:02.241Z,51.70
2022-08-05T01:41:07.181Z,51.60
2022-08-05T01:44:15.298Z,51.70
2022-08-05T01:47:19.371Z,51.70
2022-08-05T01:50:28.591Z,51.60
2022-08-05T01:53:55.227Z,51.60
2022-08-05T01:58:12.555Z,51.60
2022-08-05T02:00:20.990Z,51.60
2022-08-05T02:03:35.689Z,51.60
2022-08-05T02:06:39.068Z,51.60
2022-08-05T02:09:41.083Z,51.60
2022-08-05T02:12:51.034Z,51.60
2022-08-05T02:16:00.487Z,51.60
2022-08-05T02:19:08.511Z,51.60
2022-08-05T02:22:25.443Z,51.50
2022-08-05T02:25:33.456Z,51.60
2022-08-05T02:28:41.705Z,51.50
2022-08-05T02:31:49.759Z,51.40
2022-08-05T02:34:54.948Z,51.50
2022-08-05T02:38:00.226Z,51.50
2022-08-05T02:41:14.588Z,51.50
2022-08-05T02:44:21.041Z,51.50
2022-08-05T02:47:24.427Z,51.40
2022-08-05T02:50:49.588Z,51.40
2022-08-05T02:53:54.843Z,51.30
2022-08-05T02:57:00.115Z,51.40
2022-08-05T03:00:01.826Z,51.40
2022-08-05T03:03:10.385Z,51.40
2022-08-05T03:06:54.597Z,51.40
2022-08-05T03:09:37.526Z,51.30
2022-08-05T03:12:43.651Z,51.40
2022-08-05T03:15:47.673Z,51.30
2022-08-05T03:18:52.844Z,51.30
2022-08-05T03:21:54.300Z,51.30
2022-08-05T03:24:57.305Z,51.40
2022-08-05T03:28:14.203Z,51.40
2022-08-05T03:31:18.366Z,51.40
2022-08-05T03:34:39.138Z,51.50
2022-08-05T03:37:46.089Z,51.50
2022-08-05T03:40:48.759Z,51.40
2022-08-05T03:44:09.408Z,51.40
2022-08-05T03:47:13.617Z,51.40
2022-08-05T03:50:20.232Z,51.40
2022-08-05T03:55:50.559Z,51.40
2022-08-05T03:56:52.427Z,51.30
2022-08-05T03:59:57.796Z,51.30
2022-08-05T04:03:02.276Z,51.20
2022-08-05T04:06:05.686Z,51.30
2022-08-05T04:09:10.796Z,51.20
2022-08-05T04:12:24.689Z,51.20
2022-08-05T04:15:27.764Z,51.20
2022-08-05T04:18:34.721Z,51.20
2022-08-05T04:22:08.467Z,51.10
2022-08-05T04:24:58.384Z,51.20
2022-08-05T04:28:05.750Z,51.10
2022-08-05T04:31:13.033Z,51.10
2022-08-05T04:34:31.917Z,51.70
2022-08-05T04:38:02.580Z,51.00
2022-08-05T04:40:56.642Z,51.20
2022-08-05T04:44:00.048Z,51.10
2022-08-05T04:47:09.670Z,51.00
2022-08-05T04:50:11.881Z,51.00
2022-08-05T04:53:18.550Z,50.90
2022-08-05T04:56:34.628Z,51.00
2022-08-05T04:59:40.786Z,51.00
2022-08-05T05:02:43.282Z,51.00
2022-08-05T05:06:40.778Z,51.10
2022-08-05T05:09:06.919Z,51.00
2022-08-05T05:12:08.619Z,51.00
2022-08-05T05:15:10.599Z,51.00
2022-08-05T05:18:28.297Z,51.00
2022-08-05T05:21:33.189Z,51.10
2022-08-05T05:24:58.186Z,51.10
2022-08-05T05:27:56.877Z,51.00
2022-08-05T05:30:59.068Z,51.00
2022-08-05T05:34:02.399Z,51.00
2022-08-05T05:37:04.366Z,51.00
2022-08-05T05:40:09.347Z,51.00
2022-08-05T05:43:13.918Z,51.00
2022-08-05T05:46:17.778Z,51.00
2022-08-05T05:49:22.687Z,50.90
2022-08-05T05:52:28.341Z,51.00
2022-08-05T05:55:52.163Z,51.00
2022-08-05T05:58:55.124Z,51.00
2022-08-05T06:01:58.186Z,51.00
2022-08-05T06:05:03.641Z,51.00
2022-08-05T06:08:15.694Z,51.20
2022-08-05T06:11:35.093Z,51.00
2022-08-05T06:14:43.752Z,51.10
2022-08-05T06:17:52.441Z,51.80
2022-08-05T06:20:55.396Z,51.30
2022-08-05T06:23:56.877Z,51.30
2022-08-05T06:27:04.332Z,51.30
2022-08-05T06:30:17.802Z,51.30
2022-08-05T06:33:33.096Z,51.30
2022-08-05T06:36:58.156Z,51.40
2022-08-05T06:40:00.362Z,51.30
2022-08-05T06:43:05.099Z,51.40
2022-08-05T06:46:29.795Z,51.50
2022-08-05T06:49:59.799Z,51.60
2022-08-05T06:52:58.655Z,51.60
2022-08-05T06:56:02.599Z,51.60
2022-08-05T06:59:08.533Z,51.60
2022-08-05T07:02:11.511Z,51.50
2022-08-05T07:05:18.890Z,51.90
2022-08-05T07:08:21.868Z,51.70
2022-08-05T07:11:27.892Z,51.60
2022-08-05T07:14:44.729Z,51.60
2022-08-05T07:18:00.996Z,51.50
2022-08-05T07:21:08.116Z,51.50
2022-08-05T07:24:14.437Z,51.40
2022-08-05T07:27:15.916Z,52.00
2022-08-05T07:30:25.575Z,51.20
2022-08-05T07:33:37.210Z,51.20
2022-08-05T07:36:39.165Z,51.10
2022-08-05T07:40:26.171Z,51.00
2022-08-05T07:43:04.863Z,50.90
2022-08-05T07:46:25.230Z,50.90
2022-08-05T07:49:27.394Z,50.70
2022-08-05T07:52:30.434Z,50.40
2022-08-05T07:55:44.251Z,50.40
2022-08-05T07:58:58.948Z,50.30
2022-08-05T08:02:01.862Z,50.20
2022-08-05T08:05:05.604Z,50.30
2022-08-05T08:08:07.113Z,49.90
2022-08-05T08:11:16.012Z,49.90
2022-08-05T08:14:18.256Z,49.80
2022-08-05T08:17:21.502Z,49.70
2022-08-05T08:20:45.219Z,49.60
2022-08-05T08:24:02.841Z,49.60
2022-08-05T08:27:07.350Z,49.50
2022-08-05T08:30:20.142Z,49.50
2022-08-05T08:33:35.922Z,49.40
2022-08-05T08:36:48.900Z,49.40
2022-08-05T08:39:54.166Z,49.30
2022-08-05T08:42:56.812Z,49.20
2022-08-05T08:46:01.088Z,49.20
2022-08-05T08:50:14.269Z,49.10
2022-08-05T08:52:30.584Z,49.00
2022-08-05T08:56:04.115Z,49.00
2022-08-05T08:58:58.597Z,48.90
2022-08-05T09:02:01.380Z,48.90
2022-08-05T09:05:17.944Z,48.70
2022-08-05T09:08:21.675Z,48.60
2022-08-05T09:11:52.730Z,48.70
2022-08-05T09:14:57.859Z,48.50
2022-08-05T09:18:08.729Z,48.50
2022-08-05T09:21:11.636Z,48.50
2022-08-05T09:24:22.075Z,48.40
2022-08-05T09:28:05.139Z,48.40
2022-08-05T09:30:55.827Z,48.20
2022-08-05T09:34:00.306Z,48.10
2022-08-05T09:37:03.297Z,48.10
2022-08-05T09:40:32.104Z,48.00
2022-08-05T09:43:40.538Z,48.00
2022-08-05T09:46:53.683Z,47.90
2022-08-05T09:50:03.388Z,47.80
2022-08-05T09:53:05.665Z,47.80
2022-08-05T09:56:12.916Z,47.70
2022-08-05T09:59:17.198Z,47.50
2022-08-05T10:02:31.208Z,47.50
2022-08-05T10:05:33.515Z,47.40
2022-08-05T10:08:38.306Z,47.20
2022-08-05T10:11:45.000Z,47.20
2022-08-05T10:14:49.540Z,47.20
2022-08-05T10:18:09.052Z,47.20
2022-08-05T10:21:15.574Z,46.70
2022-08-05T10:24:20.319Z,46.80
2022-08-05T10:28:13.704Z,46.50
2022-08-05T10:32:53.602Z,46.50
2022-08-05T10:34:12.558Z,46.40
2022-08-05T10:37:15.794Z,46.00
2022-08-05T10:40:28.337Z,46.20
2022-08-05T10:43:40.741Z,46.30
2022-08-05T10:46:44.461Z,46.10
2022-08-05T10:50:28.062Z,46.10
2022-08-05T10:53:35.107Z,46.00
2022-08-05T10:56:45.732Z,46.00
2022-08-05T11:00:04.097Z,46.50
2022-08-05T11:03:25.002Z,45.90
2022-08-05T11:06:30.776Z,45.90
2022-08-05T11:09:46.450Z,45.90
2022-08-05T11:12:50.432Z,45.70
2022-08-05T11:16:21.516Z,45.80
2022-08-05T11:20:10.285Z,45.70
2022-08-05T11:22:49.863Z,45.70
2022-08-05T11:26:04.816Z,45.70
2022-08-05T11:29:34.643Z,45.60
2022-08-05T11:32:36.326Z,45.50
2022-08-05T11:36:08.230Z,45.50
2022-08-05T11:39:12.552Z,45.40
2022-08-05T11:42:18.544Z,45.30
2022-08-05T11:46:14.564Z,45.40
2022-08-05T11:48:42.462Z,45.20
2022-08-05T11:51:49.794Z,45.20
2022-08-05T11:54:55.093Z,45.10
2022-08-05T11:58:10.520Z,45.00
2022-08-05T12:01:19.114Z,44.90
2022-08-05T12:04:21.307Z,44.80
2022-08-05T12:08:08.963Z,45.40
2022-08-05T12:10:48.815Z,44.60
2022-08-05T12:13:54.299Z,44.50
2022-08-05T12:17:36.118Z,44.30
2022-08-05T12:20:33.714Z,44.10
2022-08-05T12:23:35.998Z,44.10
2022-08-05T12:26:47.247Z,43.90
2022-08-05T12:29:58.636Z,44.40
2022-08-05T12:33:06.905Z,43.60
2022-08-05T12:36:22.310Z,43.70
2022-08-05T12:39:34.317Z,43.60
2022-08-05T12:42:39.386Z,43.40
2022-08-05T12:45:50.935Z,43.30
2022-08-05T12:48:58.435Z,43.10
2022-08-05T12:52:12.511Z,43.00
2022-08-05T12:55:25.662Z,43.00
2022-08-05T12:58:49.607Z,42.90
2022-08-05T13:02:07.601Z,42.80
2022-08-05T13:05:14.322Z,42.60
2022-08-05T13:08:17.882Z,42.60
2022-08-05T13:11:59.787Z,42.60
2022-08-05T13:14:44.723Z,42.60
2022-08-05T13:17:54.502Z,42.50
2022-08-05T13:21:01.899Z,42.40
2022-08-05T13:24:06.103Z,42.50
2022-08-05T13:27:11.170Z,42.40
2022-08-05T13:30:35.399Z,42.40
2022-08-05T13:34:22.983Z,42.30
2022-08-05T13:37:00.319Z,42.30
2022-08-05T13:40:15.825Z,42.40
2022-08-05T13:43:22.060Z,42.20
2022-08-05T13:49:46.758Z,42.40
2022-08-05T13:52:50.947Z,42.30
2022-08-05T13:56:00.241Z,42.30
2022-08-05T13:59:05.961Z,42.40
2022-08-05T14:02:21.368Z,42.20
2022-08-05T14:05:47.999Z,42.20
2022-08-05T14:08:50.575Z,42.20
2022-08-05T14:12:04.649Z,42.20
2022-08-05T14:16:04.532Z,42.20
2022-08-05T14:18:38.011Z,42.30
2022-08-05T14:22:09.369Z,42.40
2022-08-05T14:25:02.440Z,42.20
2022-08-05T14:28:08.584Z,42.20
2022-08-05T14:32:02.600Z,42.20
2022-08-05T14:34:45.859Z,42.30
2022-08-05T14:37:52.174Z,42.20
2022-08-05T14:40:57.633Z,42.20
2022-08-05T14:44:09.446Z,42.30
2022-08-05T14:47:11.755Z,42.20
2022-08-05T14:50:17.702Z,42.20
2022-08-05T14:53:20.426Z,42.20
2022-08-05T14:56:24.173Z,42.20
2022-08-05T14:59:29.557Z,42.10
2022-08-05T15:02:37.150Z,42.10
2022-08-05T15:06:07.537Z,42.00
2022-08-05T15:09:03.983Z,42.10
2022-08-05T15:12:06.713Z,42.10
2022-08-05T15:15:10.818Z,42.10
2022-08-05T15:18:17.438Z,42.00
2022-08-05T15:21:21.116Z,42.10
2022-08-05T15:24:22.748Z,41.90
2022-08-05T15:27:25.651Z,41.80
2022-08-05T15:30:31.199Z,41.60
2022-08-05T15:34:18.776Z,41.60
2022-08-05T15:36:54.927Z,41.50
2022-08-05T15:41:04.618Z,41.60
2022-08-05T15:43:20.212Z,41.70
2022-08-05T15:46:24.052Z,41.60
2022-08-05T15:49:53.466Z,41.50
2022-08-05T15:52:54.608Z,42.00
2022-08-05T15:56:01.339Z,41.40
2022-08-05T15:59:06.515Z,41.30
2022-08-05T16:02:09.557Z,41.30
2022-08-05T16:05:16.395Z,41.20
2022-08-05T16:08:20.995Z,41.20
2022-08-05T16:11:42.352Z,41.10
2022-08-05T16:14:45.967Z,41.00
2022-08-05T16:17:57.883Z,40.90
2022-08-05T16:21:03.921Z,41.00
2022-08-05T16:24:06.784Z,40.90
2022-08-05T16:27:15.953Z,40.90
2022-08-05T16:30:25.468Z,40.90
2022-08-05T16:33:31.332Z,40.70
2022-08-05T16:36:42.948Z,40.80
2022-08-05T16:40:04.562Z,40.70
2022-08-05T16:43:09.241Z,40.70
2022-08-05T16:46:23.567Z,40.60
2022-08-05T16:49:25.800Z,40.50
2022-08-05T16:52:33.368Z,40.50
2022-08-05T16:55:47.256Z,40.40
2022-08-05T16:58:49.049Z,40.50
2022-08-05T17:01:54.477Z,40.40
2022-08-05T17:04:57.362Z,40.40
2022-08-05T17:07:58.808Z,40.30
2022-08-05T17:11:00.628Z,40.30
2022-08-05T17:14:06.237Z,40.30
2022-08-05T17:17:09.288Z,41.00
2022-08-05T17:20:16.484Z,40.50
2022-08-05T17:24:03.134Z,40.30
2022-08-05T17:26:40.920Z,40.40
2022-08-05T17:29:42.636Z,40.50
2022-08-05T17:32:44.887Z,40.50
2022-08-05T17:36:07.876Z,40.50
2022-08-05T17:39:24.401Z,40.40
2022-08-05T17:42:33.234Z,40.50
2022-08-05T17:45:38.678Z,40.50
2022-08-05T17:48:43.234Z,40.40
2022-08-05T17:51:46.420Z,40.20
2022-08-05T17:54:51.634Z,40.20
2022-08-05T17:57:53.474Z,40.20
2022-08-05T18:00:54.949Z,40.10
2022-08-05T18:04:04.771Z,39.90
2022-08-05T18:07:07.453Z,39.80
2022-08-05T18:10:21.108Z,39.70
2022-08-05T18:13:23.171Z,39.60
2022-08-05T18:16:27.507Z,39.50
2022-08-05T18:19:29.522Z,39.40
2022-08-05T18:22:45.982Z,39.30
2022-08-05T18:25:57.828Z,39.20
2022-08-05T18:29:04.141Z,39.30
2022-08-05T18:32:12.961Z,39.20
2022-08-05T18:35:16.129Z,39.30
2022-08-05T18:38:19.617Z,39.30
2022-08-05T18:41:56.502Z,39.20
2022-08-05T18:44:56.510Z,39.20
2022-08-05T18:48:01.439Z,39.30
2022-08-05T18:52:02.634Z,39.50
2022-08-05T18:54:41.362Z,39.40
2022-08-05T18:57:53.165Z,39.40
2022-08-05T19:00:56.009Z,39.60
2022-08-05T19:03:57.512Z,39.60
2022-08-05T19:06:59.577Z,39.80
2022-08-05T19:10:02.199Z,39.90
2022-08-05T19:13:04.316Z,39.90
2022-08-05T19:16:24.313Z,40.10
2022-08-05T19:19:27.796Z,40.20
2022-08-05T19:22:33.108Z,40.40
2022-08-05T19:25:41.893Z,40.50
2022-08-05T19:28:45.295Z,40.60
2022-08-05T19:31:51.190Z,40.70
2022-08-05T19:34:54.937Z,40.80
2022-08-05T19:38:06.536Z,41.10
2022-08-05T19:41:10.255Z,41.30
2022-08-05T19:44:13.523Z,41.40
2022-08-05T19:47:19.094Z,41.50
2022-08-05T19:50:20.861Z,41.60
2022-08-05T19:54:05.399Z,41.80
2022-08-05T19:56:47.424Z,41.90
2022-08-05T19:59:56.514Z,42.20
2022-08-05T20:03:13.192Z,42.30
2022-08-05T20:06:16.013Z,42.50
2022-08-05T20:09:53.904Z,42.50
2022-08-05T20:12:54.217Z,42.70
2022-08-05T20:15:57.641Z,42.90
2022-08-05T20:18:59.491Z,43.10
2022-08-05T20:22:03.080Z,43.10
2022-08-05T20:25:07.768Z,43.30
2022-08-05T20:28:14.552Z,43.40
2022-08-05T20:31:16.918Z,43.50
2022-08-05T20:34:18.568Z,43.60
2022-08-05T20:38:06.308Z,43.70
2022-08-05T20:40:44.787Z,43.90
2022-08-05T20:43:59.755Z,43.90
2022-08-05T20:47:08.876Z,44.10
2022-08-05T20:50:14.887Z,44.20
2022-08-05T20:53:36.936Z,44.80
2022-08-05T20:56:41.664Z,44.40
2022-08-05T21:00:10.227Z,44.60
2022-08-05T21:03:07.197Z,44.50
2022-08-05T21:06:27.977Z,44.60
2022-08-05T21:09:30.635Z,44.70
2022-08-05T21:12:36.026Z,44.80
2022-08-05T21:15:37.524Z,44.90
2022-08-05T21:18:39.215Z,44.90
2022-08-05T21:21:51.174Z,45.60
2022-08-05T21:24:53.714Z,45.00
2022-08-05T21:27:56.926Z,45.00
2022-08-05T21:30:58.833Z,45.00
2022-08-05T21:34:00.322Z,45.10
2022-08-05T21:37:04.212Z,45.20
2022-08-05T21:40:06.443Z,45.10
2022-08-05T21:43:24.661Z,45.10
2022-08-05T21:46:26.859Z,45.10
2022-08-05T21:49:48.301Z,45.10
2022-08-05T21:52:52.251Z,45.10
2022-08-05T21:56:06.335Z,45.00
2022-08-05T21:59:22.520Z,45.00
2022-08-05T22:02:26.675Z,45.00
2022-08-05T22:05:28.431Z,45.00
2022-08-05T22:08:50.550Z,45.00
2022-08-05T22:11:54.569Z,45.00
2022-08-05T22:14:57.195Z,45.00
2022-08-05T22:18:00.064Z,44.90
2022-08-05T22:21:04.020Z,44.80
2022-08-05T22:24:40.792Z,44.80
2022-08-05T22:28:08.439Z,44.60
2022-08-05T22:31:09.067Z,44.50
2022-08-05T22:34:25.444Z,44.50
2022-08-05T22:37:58.031Z,44.40
2022-08-05T22:40:55.173Z,44.20
2022-08-05T22:43:58.488Z,44.10
2022-08-05T22:47:00.948Z,44.00
2022-08-05T22:50:21.633Z,43.80
2022-08-05T22:53:25.147Z,43.60
2022-08-05T22:56:39.861Z,43.40
2022-08-05T22:59:46.009Z,43.00
2022-08-05T23:02:52.470Z,43.20
2022-08-05T23:05:54.943Z,43.10
2022-08-05T23:08:56.725Z,42.90
2022-08-05T23:12:19.581Z,42.80
2022-08-05T23:15:30.043Z,42.80
2022-08-05T23:18:40.262Z,42.80
2022-08-05T23:21:48.286Z,42.60
2022-08-05T23:24:51.066Z,42.40
2022-08-05T23:28:00.190Z,42.40
2022-08-05T23:31:17.577Z,42.20
2022-08-05T23:34:24.310Z,42.10
2022-08-05T23:37:26.756Z,42.10
2022-08-05T23:40:37.956Z,41.90
2022-08-05T23:44:06.187Z,41.80
2022-08-05T23:47:02.599Z,41.70
2022-08-05T23:50:20.078Z,41.60
2022-08-05T23:53:22.235Z,41.50
2022-08-05T23:56:27.401Z,41.50
